sensor_id;sensor_type;location;lat;lon;timestamp;P1;durP1;ratioP1;P2;durP2;ratioP2
39180;SDS011;24906;48.262;14.264;2022-08-01T00:02:21;2.70;;;2.50;;
39180;SDS011;24906;48.262;14.264;2022-08-01T00:04:48;3.05;;;2.80;;
39180;SDS011;24906;48.262;14.264;2022-08-01T00:07:21;3.28;;;2.95;;
39180;SDS011;24906;48.262;14.264;2022-08-01T00:09:54;3.00;;;2.80;;
39180;SDS011;24906;48.262;14.264;2022-08-01T00:12:27;2.72;;;2.53;;
39180;SDS011;24906;48.262;14.264;2022-08-01T00:15:01;3.67;;;3.38;;
39180;SDS011;24906;48.262;14.264;2022-08-01T00:17:29;3.10;;;2.78;;
39180;SDS011;24906;48.262;14.264;2022-08-01T00:20:03;3.42;;;3.08;;
39180;SDS011;24906;48.262;14.264;2022-08-01T00:22:37;3.17;;;2.92;;
39180;SDS011;24906;48.262;14.264;2022-08-01T00:25:11;3.28;;;3.00;;
39180;SDS011;24906;48.262;14.264;2022-08-01T00:27:38;4.18;;;3.05;;
39180;SDS011;24906;48.262;14.264;2022-08-01T00:30:12;4.82;;;2.83;;
39180;SDS011;24906;48.262;14.264;2022-08-01T00:32:43;2.50;;;2.30;;
39180;SDS011;24906;48.262;14.264;2022-08-01T00:35:10;4.38;;;2.58;;
39180;SDS011;24906;48.262;14.264;2022-08-01T00:37:43;2.90;;;2.70;;
39180;SDS011;24906;48.262;14.264;2022-08-01T00:40:10;4.03;;;3.28;;
39180;SDS011;24906;48.262;14.264;2022-08-01T00:42:43;4.22;;;3.25;;
39180;SDS011;24906;48.262;14.264;2022-08-01T00:45:11;2.85;;;2.63;;
39180;SDS011;24906;48.262;14.264;2022-08-01T00:47:44;5.20;;;3.38;;
39180;SDS011;24906;48.262;14.264;2022-08-01T00:50:11;4.55;;;3.30;;
39180;SDS011;24906;48.262;14.264;2022-08-01T00:52:47;5.18;;;3.65;;
39180;SDS011;24906;48.262;14.264;2022-08-01T00:55:17;3.90;;;2.97;;
39180;SDS011;24906;48.262;14.264;2022-08-01T00:57:51;3.60;;;2.90;;
39180;SDS011;24906;48.262;14.264;2022-08-01T01:00:30;5.03;;;3.10;;
39180;SDS011;24906;48.262;14.264;2022-08-01T01:03:19;4.28;;;3.65;;
39180;SDS011;24906;48.262;14.264;2022-08-01T01:06:13;6.53;;;3.40;;
39180;SDS011;24906;48.262;14.264;2022-08-01T01:09:12;4.22;;;2.97;;
39180;SDS011;24906;48.262;14.264;2022-08-01T01:12:01;4.38;;;3.08;;
39180;SDS011;24906;48.262;14.264;2022-08-01T01:20:37;3.65;;;2.97;;
39180;SDS011;24906;48.262;14.264;2022-08-01T01:23:07;3.85;;;3.55;;
39180;SDS011;24906;48.262;14.264;2022-08-01T01:25:50;3.17;;;2.97;;
39180;SDS011;24906;48.262;14.264;2022-08-01T01:31:10;3.70;;;3.00;;
39180;SDS011;24906;48.262;14.264;2022-08-01T01:33:45;3.78;;;3.53;;
39180;SDS011;24906;48.262;14.264;2022-08-01T01:36:16;7.88;;;3.00;;
39180;SDS011;24906;48.262;14.264;2022-08-01T01:38:45;4.10;;;2.92;;
39180;SDS011;24906;48.262;14.264;2022-08-01T01:41:20;3.78;;;3.42;;
39180;SDS011;24906;48.262;14.264;2022-08-01T01:43:49;4.82;;;3.17;;
39180;SDS011;24906;48.262;14.264;2022-08-01T01:46:30;3.53;;;2.78;;
39180;SDS011;24906;48.262;14.264;2022-08-01T01:48:58;3.70;;;3.40;;
39180;SDS011;24906;48.262;14.264;2022-08-01T01:51:33;3.50;;;3.20;;
39180;SDS011;24906;48.262;14.264;2022-08-01T01:53:59;3.30;;;3.10;;
39180;SDS011;24906;48.262;14.264;2022-08-01T01:56:35;6.95;;;3.33;;
39180;SDS011;24906;48.262;14.264;2022-08-01T01:59:21;4.13;;;3.13;;
39180;SDS011;24906;48.262;14.264;2022-08-01T02:01:59;4.68;;;3.13;;
39180;SDS011;24906;48.262;14.264;2022-08-01T02:04:38;6.00;;;3.07;;
39180;SDS011;24906;48.262;14.264;2022-08-01T02:07:17;3.72;;;3.38;;
39180;SDS011;24906;48.262;14.264;2022-08-01T02:09:46;3.50;;;3.17;;
39180;SDS011;24906;48.262;14.264;2022-08-01T02:12:21;3.40;;;3.10;;
39180;SDS011;24906;48.262;14.264;2022-08-01T02:14:50;3.83;;;3.20;;
39180;SDS011;24906;48.262;14.264;2022-08-01T02:17:26;6.93;;;3.75;;
39180;SDS011;24906;48.262;14.264;2022-08-01T02:20:08;4.18;;;3.83;;
39180;SDS011;24906;48.262;14.264;2022-08-01T02:22:37;6.40;;;2.90;;
39180;SDS011;24906;48.262;14.264;2022-08-01T02:25:20;3.83;;;3.63;;
39180;SDS011;24906;48.262;14.264;2022-08-01T02:30:32;4.15;;;3.72;;
39180;SDS011;24906;48.262;14.264;2022-08-01T02:33:03;7.50;;;3.92;;
39180;SDS011;24906;48.262;14.264;2022-08-01T02:35:42;6.75;;;3.40;;
39180;SDS011;24906;48.262;14.264;2022-08-01T02:38:34;7.90;;;3.85;;
39180;SDS011;24906;48.262;14.264;2022-08-01T02:41:16;4.00;;;3.60;;
39180;SDS011;24906;48.262;14.264;2022-08-01T02:43:53;6.50;;;3.92;;
39180;SDS011;24906;48.262;14.264;2022-08-01T02:46:33;4.80;;;3.53;;
39180;SDS011;24906;48.262;14.264;2022-08-01T02:49:11;3.53;;;3.33;;
39180;SDS011;24906;48.262;14.264;2022-08-01T02:51:48;3.70;;;3.40;;
39180;SDS011;24906;48.262;14.264;2022-08-01T02:54:17;4.32;;;3.90;;
39180;SDS011;24906;48.262;14.264;2022-08-01T02:56:53;5.32;;;3.90;;
39180;SDS011;24906;48.262;14.264;2022-08-01T02:59:32;4.20;;;3.85;;
39180;SDS011;24906;48.262;14.264;2022-08-01T03:02:10;4.78;;;3.70;;
39180;SDS011;24906;48.262;14.264;2022-08-01T03:04:39;4.30;;;3.60;;
39180;SDS011;24906;48.262;14.264;2022-08-01T03:07:21;8.65;;;3.83;;
39180;SDS011;24906;48.262;14.264;2022-08-01T03:10:06;5.63;;;3.92;;
39180;SDS011;24906;48.262;14.264;2022-08-01T03:12:33;7.20;;;3.53;;
39180;SDS011;24906;48.262;14.264;2022-08-01T03:15:12;4.88;;;4.00;;
39180;SDS011;24906;48.262;14.264;2022-08-01T03:17:40;4.43;;;4.13;;
39180;SDS011;24906;48.262;14.264;2022-08-01T03:20:16;4.82;;;4.32;;
39180;SDS011;24906;48.262;14.264;2022-08-01T03:22:52;6.75;;;3.70;;
39180;SDS011;24906;48.262;14.264;2022-08-01T03:25:26;9.23;;;3.85;;
39180;SDS011;24906;48.262;14.264;2022-08-01T03:27:56;4.05;;;3.65;;
39180;SDS011;24906;48.262;14.264;2022-08-01T03:30:33;3.70;;;3.50;;
39180;SDS011;24906;48.262;14.264;2022-08-01T03:33:02;6.82;;;3.75;;
39180;SDS011;24906;48.262;14.264;2022-08-01T03:35:42;8.93;;;4.00;;
39180;SDS011;24906;48.262;14.264;2022-08-01T03:38:22;5.85;;;4.07;;
39180;SDS011;24906;48.262;14.264;2022-08-01T03:40:56;13.35;;;4.22;;
39180;SDS011;24906;48.262;14.264;2022-08-01T03:43:38;7.75;;;3.67;;
39180;SDS011;24906;48.262;14.264;2022-08-01T03:46:13;5.50;;;3.95;;
39180;SDS011;24906;48.262;14.264;2022-08-01T03:48:54;5.22;;;4.15;;
39180;SDS011;24906;48.262;14.264;2022-08-01T03:51:32;4.40;;;3.80;;
39180;SDS011;24906;48.262;14.264;2022-08-01T03:54:00;5.28;;;4.22;;
39180;SDS011;24906;48.262;14.264;2022-08-01T03:56:34;4.80;;;4.40;;
39180;SDS011;24906;48.262;14.264;2022-08-01T03:59:09;6.38;;;4.22;;
39180;SDS011;24906;48.262;14.264;2022-08-01T04:01:38;7.72;;;4.10;;
39180;SDS011;24906;48.262;14.264;2022-08-01T04:04:12;4.45;;;4.15;;
39180;SDS011;24906;48.262;14.264;2022-08-01T04:06:40;4.40;;;3.83;;
39180;SDS011;24906;48.262;14.264;2022-08-01T04:09:14;5.32;;;3.67;;
39180;SDS011;24906;48.262;14.264;2022-08-01T04:11:40;4.93;;;4.43;;
39180;SDS011;24906;48.262;14.264;2022-08-01T04:14:14;6.35;;;4.40;;
39180;SDS011;24906;48.262;14.264;2022-08-01T04:16:41;5.18;;;4.38;;
39180;SDS011;24906;48.262;14.264;2022-08-01T04:19:21;4.63;;;4.22;;
39180;SDS011;24906;48.262;14.264;2022-08-01T04:21:48;4.18;;;3.88;;
39180;SDS011;24906;48.262;14.264;2022-08-01T04:24:22;5.35;;;4.50;;
39180;SDS011;24906;48.262;14.264;2022-08-01T04:26:52;4.10;;;3.80;;
39180;SDS011;24906;48.262;14.264;2022-08-01T04:29:19;9.77;;;3.20;;
39180;SDS011;24906;48.262;14.264;2022-08-01T04:31:54;10.18;;;3.28;;
39180;SDS011;24906;48.262;14.264;2022-08-01T04:34:23;6.85;;;4.00;;
39180;SDS011;24906;48.262;14.264;2022-08-01T04:37:01;4.93;;;4.18;;
39180;SDS011;24906;48.262;14.264;2022-08-01T04:39:30;4.88;;;3.63;;
39180;SDS011;24906;48.262;14.264;2022-08-01T04:42:16;4.97;;;3.88;;
39180;SDS011;24906;48.262;14.264;2022-08-01T04:44:55;5.07;;;4.50;;
39180;SDS011;24906;48.262;14.264;2022-08-01T04:47:29;6.78;;;3.38;;
39180;SDS011;24906;48.262;14.264;2022-08-01T04:49:56;5.13;;;3.92;;
39180;SDS011;24906;48.262;14.264;2022-08-01T04:52:33;4.43;;;3.90;;
39180;SDS011;24906;48.262;14.264;2022-08-01T04:55:01;5.60;;;4.03;;
39180;SDS011;24906;48.262;14.264;2022-08-01T04:57:34;7.97;;;4.22;;
39180;SDS011;24906;48.262;14.264;2022-08-01T05:00:04;6.50;;;3.50;;
39180;SDS011;24906;48.262;14.264;2022-08-01T05:02:38;6.63;;;3.63;;
39180;SDS011;24906;48.262;14.264;2022-08-01T05:05:12;6.03;;;4.47;;
39180;SDS011;24906;48.262;14.264;2022-08-01T05:07:39;5.15;;;4.50;;
39180;SDS011;24906;48.262;14.264;2022-08-01T05:10:12;4.80;;;4.40;;
39180;SDS011;24906;48.262;14.264;2022-08-01T05:12:39;13.30;;;4.47;;
39180;SDS011;24906;48.262;14.264;2022-08-01T05:15:06;6.75;;;4.43;;
39180;SDS011;24906;48.262;14.264;2022-08-01T05:17:41;6.88;;;4.20;;
39180;SDS011;24906;48.262;14.264;2022-08-01T05:20:21;5.85;;;3.78;;
39180;SDS011;24906;48.262;14.264;2022-08-01T05:22:54;7.57;;;3.72;;
39180;SDS011;24906;48.262;14.264;2022-08-01T05:25:23;5.53;;;4.07;;
39180;SDS011;24906;48.262;14.264;2022-08-01T05:28:19;5.00;;;4.43;;
39180;SDS011;24906;48.262;14.264;2022-08-01T05:30:46;5.93;;;4.30;;
39180;SDS011;24906;48.262;14.264;2022-08-01T05:33:19;8.25;;;4.75;;
39180;SDS011;24906;48.262;14.264;2022-08-01T05:35:47;5.22;;;4.43;;
39180;SDS011;24906;48.262;14.264;2022-08-01T05:38:20;5.95;;;4.38;;
39180;SDS011;24906;48.262;14.264;2022-08-01T05:40:47;6.68;;;4.32;;
39180;SDS011;24906;48.262;14.264;2022-08-01T05:43:20;10.32;;;4.57;;
39180;SDS011;24906;48.262;14.264;2022-08-01T05:45:54;12.93;;;4.72;;
39180;SDS011;24906;48.262;14.264;2022-08-01T05:48:28;4.53;;;4.05;;
39180;SDS011;24906;48.262;14.264;2022-08-01T05:51:02;7.53;;;4.30;;
39180;SDS011;24906;48.262;14.264;2022-08-01T05:53:29;5.00;;;4.47;;
39180;SDS011;24906;48.262;14.264;2022-08-01T05:56:03;6.30;;;4.50;;
39180;SDS011;24906;48.262;14.264;2022-08-01T05:58:30;9.73;;;4.90;;
39180;SDS011;24906;48.262;14.264;2022-08-01T06:01:04;5.60;;;5.15;;
39180;SDS011;24906;48.262;14.264;2022-08-01T06:03:31;5.68;;;4.25;;
39180;SDS011;24906;48.262;14.264;2022-08-01T06:06:06;4.00;;;3.70;;
39180;SDS011;24906;48.262;14.264;2022-08-01T06:08:33;4.50;;;4.18;;
39180;SDS011;24906;48.262;14.264;2022-08-01T06:11:06;4.88;;;4.38;;
39180;SDS011;24906;48.262;14.264;2022-08-01T06:13:33;7.15;;;3.83;;
39180;SDS011;24906;48.262;14.264;2022-08-01T06:16:14;4.18;;;3.67;;
39180;SDS011;24906;48.262;14.264;2022-08-01T06:18:41;4.22;;;3.53;;
39180;SDS011;24906;48.262;14.264;2022-08-01T06:21:28;3.90;;;3.60;;
39180;SDS011;24906;48.262;14.264;2022-08-01T06:23:55;4.13;;;3.58;;
39180;SDS011;24906;48.262;14.264;2022-08-01T06:26:28;4.20;;;3.58;;
39180;SDS011;24906;48.262;14.264;2022-08-01T06:28:55;6.07;;;3.97;;
39180;SDS011;24906;48.262;14.264;2022-08-01T06:31:29;3.63;;;3.42;;
39180;SDS011;24906;48.262;14.264;2022-08-01T06:34:03;6.03;;;3.75;;
39180;SDS011;24906;48.262;14.264;2022-08-01T06:36:30;5.30;;;3.40;;
39180;SDS011;24906;48.262;14.264;2022-08-01T06:38:57;5.85;;;3.47;;
39180;SDS011;24906;48.262;14.264;2022-08-01T06:41:30;5.47;;;3.72;;
39180;SDS011;24906;48.262;14.264;2022-08-01T06:43:57;4.97;;;3.25;;
39180;SDS011;24906;48.262;14.264;2022-08-01T06:46:32;3.88;;;3.25;;
39180;SDS011;24906;48.262;14.264;2022-08-01T06:49:01;4.90;;;3.30;;
39180;SDS011;24906;48.262;14.264;2022-08-01T06:51:35;3.67;;;3.10;;
39180;SDS011;24906;48.262;14.264;2022-08-01T06:54:02;4.88;;;3.67;;
39180;SDS011;24906;48.262;14.264;2022-08-01T06:56:35;8.98;;;3.30;;
39180;SDS011;24906;48.262;14.264;2022-08-01T06:59:08;3.80;;;3.50;;
39180;SDS011;24906;48.262;14.264;2022-08-01T07:01:42;3.95;;;3.15;;
39180;SDS011;24906;48.262;14.264;2022-08-01T07:04:16;4.13;;;3.70;;
39180;SDS011;24906;48.262;14.264;2022-08-01T07:06:50;7.60;;;3.17;;
39180;SDS011;24906;48.262;14.264;2022-08-01T07:09:16;3.38;;;3.08;;
39180;SDS011;24906;48.262;14.264;2022-08-01T07:11:49;4.20;;;3.40;;
39180;SDS011;24906;48.262;14.264;2022-08-01T07:14:19;4.22;;;3.35;;
39180;SDS011;24906;48.262;14.264;2022-08-01T07:16:53;3.30;;;2.80;;
39180;SDS011;24906;48.262;14.264;2022-08-01T07:19:19;3.23;;;2.93;;
39180;SDS011;24906;48.262;14.264;2022-08-01T07:22:10;8.20;;;3.10;;
39180;SDS011;24906;48.262;14.264;2022-08-01T07:24:49;7.28;;;3.00;;
39180;SDS011;24906;48.262;14.264;2022-08-01T07:27:22;2.35;;;2.20;;
39180;SDS011;24906;48.262;14.264;2022-08-01T07:29:51;5.55;;;3.10;;
39180;SDS011;24906;48.262;14.264;2022-08-01T07:32:24;7.60;;;3.30;;
39180;SDS011;24906;48.262;14.264;2022-08-01T07:34:57;3.63;;;2.58;;
39180;SDS011;24906;48.262;14.264;2022-08-01T07:37:25;6.05;;;2.70;;
39180;SDS011;24906;48.262;14.264;2022-08-01T07:40:14;4.25;;;2.17;;
39180;SDS011;24906;48.262;14.264;2022-08-01T07:42:47;5.10;;;2.95;;
39180;SDS011;24906;48.262;14.264;2022-08-01T07:45:20;5.20;;;2.95;;
39180;SDS011;24906;48.262;14.264;2022-08-01T07:47:53;2.80;;;2.67;;
39180;SDS011;24906;48.262;14.264;2022-08-01T07:50:26;2.65;;;2.47;;
39180;SDS011;24906;48.262;14.264;2022-08-01T07:52:59;2.50;;;2.30;;
39180;SDS011;24906;48.262;14.264;2022-08-01T07:55:26;2.20;;;2.10;;
39180;SDS011;24906;48.262;14.264;2022-08-01T07:57:53;4.85;;;2.40;;
39180;SDS011;24906;48.262;14.264;2022-08-01T08:00:26;4.63;;;2.05;;
39180;SDS011;24906;48.262;14.264;2022-08-01T08:02:54;3.15;;;2.53;;
39180;SDS011;24906;48.262;14.264;2022-08-01T08:05:32;6.32;;;2.35;;
39180;SDS011;24906;48.262;14.264;2022-08-01T08:08:22;2.47;;;2.00;;
39180;SDS011;24906;48.262;14.264;2022-08-01T08:10:56;3.35;;;1.92;;
39180;SDS011;24906;48.262;14.264;2022-08-01T08:13:30;3.40;;;2.80;;
39180;SDS011;24906;48.262;14.264;2022-08-01T08:15:56;2.70;;;2.50;;
39180;SDS011;24906;48.262;14.264;2022-08-01T08:18:31;4.57;;;2.20;;
39180;SDS011;24906;48.262;14.264;2022-08-01T08:21:11;4.05;;;2.00;;
39180;SDS011;24906;48.262;14.264;2022-08-01T08:23:45;5.80;;;2.30;;
39180;SDS011;24906;48.262;14.264;2022-08-01T08:26:30;5.53;;;2.30;;
39180;SDS011;24906;48.262;14.264;2022-08-01T08:29:06;3.35;;;2.03;;
39180;SDS011;24906;48.262;14.264;2022-08-01T08:31:41;8.02;;;1.77;;
39180;SDS011;24906;48.262;14.264;2022-08-01T08:34:17;2.20;;;2.00;;
39180;SDS011;24906;48.262;14.264;2022-08-01T08:36:52;7.15;;;2.50;;
39180;SDS011;24906;48.262;14.264;2022-08-01T08:39:19;6.38;;;2.05;;
39180;SDS011;24906;48.262;14.264;2022-08-01T08:41:52;3.65;;;1.95;;
39180;SDS011;24906;48.262;14.264;2022-08-01T08:44:19;3.20;;;1.88;;
39180;SDS011;24906;48.262;14.264;2022-08-01T08:46:53;2.53;;;1.90;;
39180;SDS011;24906;48.262;14.264;2022-08-01T08:49:23;4.53;;;1.77;;
39180;SDS011;24906;48.262;14.264;2022-08-01T08:52:01;2.58;;;1.98;;
39180;SDS011;24906;48.262;14.264;2022-08-01T08:54:37;2.20;;;1.70;;
39180;SDS011;24906;48.262;14.264;2022-08-01T08:57:13;4.72;;;2.00;;
39180;SDS011;24906;48.262;14.264;2022-08-01T08:59:42;2.45;;;1.88;;
39180;SDS011;24906;48.262;14.264;2022-08-01T09:02:16;3.67;;;1.88;;
39180;SDS011;24906;48.262;14.264;2022-08-01T09:04:43;6.07;;;2.10;;
39180;SDS011;24906;48.262;14.264;2022-08-01T09:07:17;2.72;;;1.60;;
39180;SDS011;24906;48.262;14.264;2022-08-01T09:09:43;4.55;;;1.83;;
39180;SDS011;24906;48.262;14.264;2022-08-01T09:12:18;4.63;;;1.85;;
39180;SDS011;24906;48.262;14.264;2022-08-01T09:14:51;5.18;;;2.15;;
39180;SDS011;24906;48.262;14.264;2022-08-01T09:17:25;2.95;;;2.13;;
39180;SDS011;24906;48.262;14.264;2022-08-01T09:19:53;2.95;;;1.98;;
39180;SDS011;24906;48.262;14.264;2022-08-01T09:22:42;2.55;;;2.35;;
39180;SDS011;24906;48.262;14.264;2022-08-01T09:25:16;1.77;;;1.60;;
39180;SDS011;24906;48.262;14.264;2022-08-01T09:27:42;6.40;;;1.83;;
39180;SDS011;24906;48.262;14.264;2022-08-01T09:30:16;3.28;;;2.03;;
39180;SDS011;24906;48.262;14.264;2022-08-01T09:35:36;13.40;;;2.47;;
39180;SDS011;24906;48.262;14.264;2022-08-01T09:38:11;2.38;;;2.17;;
39180;SDS011;24906;48.262;14.264;2022-08-01T09:43:29;3.00;;;1.80;;
39180;SDS011;24906;48.262;14.264;2022-08-01T09:45:58;7.07;;;2.00;;
39180;SDS011;24906;48.262;14.264;2022-08-01T09:48:38;2.72;;;2.08;;
39180;SDS011;24906;48.262;14.264;2022-08-01T09:51:14;5.18;;;2.47;;
39180;SDS011;24906;48.262;14.264;2022-08-01T09:54:30;4.20;;;1.70;;
39180;SDS011;24906;48.262;14.264;2022-08-01T09:57:09;3.97;;;2.10;;
39180;SDS011;24906;48.262;14.264;2022-08-01T09:59:49;4.18;;;1.52;;
39180;SDS011;24906;48.262;14.264;2022-08-01T10:02:30;3.03;;;1.70;;
39180;SDS011;24906;48.262;14.264;2022-08-01T10:05:00;4.00;;;1.60;;
39180;SDS011;24906;48.262;14.264;2022-08-01T10:07:35;2.90;;;2.13;;
39180;SDS011;24906;48.262;14.264;2022-08-01T10:10:10;1.93;;;1.80;;
39180;SDS011;24906;48.262;14.264;2022-08-01T10:12:41;2.35;;;1.92;;
39180;SDS011;24906;48.262;14.264;2022-08-01T10:15:17;2.10;;;2.00;;
39180;SDS011;24906;48.262;14.264;2022-08-01T10:17:52;3.33;;;1.90;;
39180;SDS011;24906;48.262;14.264;2022-08-01T10:20:29;4.85;;;1.92;;
39180;SDS011;24906;48.262;14.264;2022-08-01T10:23:11;4.97;;;1.75;;
39180;SDS011;24906;48.262;14.264;2022-08-01T10:25:40;2.30;;;2.10;;
39180;SDS011;24906;48.262;14.264;2022-08-01T10:28:21;1.88;;;1.67;;
39180;SDS011;24906;48.262;14.264;2022-08-01T10:31:04;2.92;;;1.50;;
39180;SDS011;24906;48.262;14.264;2022-08-01T10:33:40;8.13;;;1.83;;
39180;SDS011;24906;48.262;14.264;2022-08-01T10:36:19;2.75;;;1.60;;
39180;SDS011;24906;48.262;14.264;2022-08-01T10:38:54;3.72;;;1.67;;
39180;SDS011;24906;48.262;14.264;2022-08-01T10:41:28;2.72;;;1.33;;
39180;SDS011;24906;48.262;14.264;2022-08-01T10:44:09;1.60;;;1.50;;
39180;SDS011;24906;48.262;14.264;2022-08-01T10:46:44;1.90;;;1.48;;
39180;SDS011;24906;48.262;14.264;2022-08-01T10:49:22;1.67;;;1.55;;
39180;SDS011;24906;48.262;14.264;2022-08-01T10:51:53;4.57;;;1.58;;
39180;SDS011;24906;48.262;14.264;2022-08-01T10:54:27;2.05;;;1.40;;
39180;SDS011;24906;48.262;14.264;2022-08-01T10:56:54;1.88;;;1.30;;
39180;SDS011;24906;48.262;14.264;2022-08-01T10:59:33;1.90;;;1.27;;
39180;SDS011;24906;48.262;14.264;2022-08-01T11:02:28;3.13;;;1.70;;
39180;SDS011;24906;48.262;14.264;2022-08-01T11:05:04;1.90;;;1.70;;
39180;SDS011;24906;48.262;14.264;2022-08-01T11:07:43;2.95;;;1.60;;
39180;SDS011;24906;48.262;14.264;2022-08-01T11:12:54;2.28;;;1.95;;
39180;SDS011;24906;48.262;14.264;2022-08-01T11:15:22;2.97;;;1.70;;
39180;SDS011;24906;48.262;14.264;2022-08-01T11:18:00;6.88;;;1.50;;
39180;SDS011;24906;48.262;14.264;2022-08-01T11:20:36;3.88;;;2.03;;
39180;SDS011;24906;48.262;14.264;2022-08-01T11:28:36;1.50;;;1.40;;
39180;SDS011;24906;48.262;14.264;2022-08-01T11:31:32;5.82;;;1.58;;
39180;SDS011;24906;48.262;14.264;2022-08-01T11:34:07;1.50;;;1.40;;
39180;SDS011;24906;48.262;14.264;2022-08-01T11:36:41;1.50;;;1.40;;
39180;SDS011;24906;48.262;14.264;2022-08-01T11:39:24;1.60;;;1.48;;
39180;SDS011;24906;48.262;14.264;2022-08-01T11:41:51;2.60;;;1.40;;
39180;SDS011;24906;48.262;14.264;2022-08-01T11:44:26;2.35;;;1.48;;
39180;SDS011;24906;48.262;14.264;2022-08-01T11:52:19;2.80;;;1.70;;
39180;SDS011;24906;48.262;14.264;2022-08-01T11:55:10;2.05;;;1.48;;
39180;SDS011;24906;48.262;14.264;2022-08-01T11:57:43;1.27;;;1.23;;
39180;SDS011;24906;48.262;14.264;2022-08-01T12:00:17;3.47;;;1.35;;
39180;SDS011;24906;48.262;14.264;2022-08-01T12:02:45;1.50;;;1.40;;
39180;SDS011;24906;48.262;14.264;2022-08-01T12:05:24;2.20;;;1.50;;
39180;SDS011;24906;48.262;14.264;2022-08-01T12:07:59;2.95;;;1.40;;
39180;SDS011;24906;48.262;14.264;2022-08-01T12:10:28;1.20;;;1.10;;
39180;SDS011;24906;48.262;14.264;2022-08-01T12:13:15;5.15;;;1.50;;
39180;SDS011;24906;48.262;14.264;2022-08-01T12:15:50;2.40;;;1.40;;
39180;SDS011;24906;48.262;14.264;2022-08-01T12:18:23;3.58;;;1.60;;
39180;SDS011;24906;48.262;14.264;2022-08-01T12:21:03;1.83;;;1.13;;
39180;SDS011;24906;48.262;14.264;2022-08-01T12:26:05;1.35;;;1.25;;
39180;SDS011;24906;48.262;14.264;2022-08-01T12:28:38;1.75;;;1.00;;
39180;SDS011;24906;48.262;14.264;2022-08-01T12:31:13;3.97;;;1.30;;
39180;SDS011;24906;48.262;14.264;2022-08-01T12:33:40;3.80;;;1.60;;
39180;SDS011;24906;48.262;14.264;2022-08-01T12:36:16;1.40;;;1.33;;
39180;SDS011;24906;48.262;14.264;2022-08-01T12:38:54;1.45;;;1.17;;
39180;SDS011;24906;48.262;14.264;2022-08-01T12:41:29;1.02;;;1.00;;
39180;SDS011;24906;48.262;14.264;2022-08-01T12:43:56;1.17;;;1.10;;
39180;SDS011;24906;48.262;14.264;2022-08-01T12:46:29;1.48;;;1.08;;
39180;SDS011;24906;48.262;14.264;2022-08-01T12:48:56;1.50;;;1.00;;
39180;SDS011;24906;48.262;14.264;2022-08-01T12:51:29;3.55;;;1.00;;
39180;SDS011;24906;48.262;14.264;2022-08-01T12:53:59;0.93;;;0.93;;
39180;SDS011;24906;48.262;14.264;2022-08-01T12:59:24;2.10;;;1.00;;
39180;SDS011;24906;48.262;14.264;2022-08-01T13:02:08;2.83;;;1.13;;
39180;SDS011;24906;48.262;14.264;2022-08-01T13:04:48;1.27;;;1.20;;
39180;SDS011;24906;48.262;14.264;2022-08-01T13:07:26;2.67;;;1.20;;
39180;SDS011;24906;48.262;14.264;2022-08-01T13:10:26;1.17;;;0.90;;
39180;SDS011;24906;48.262;14.264;2022-08-01T13:12:55;2.22;;;0.85;;
39180;SDS011;24906;48.262;14.264;2022-08-01T13:15:31;3.92;;;0.98;;
39180;SDS011;24906;48.262;14.264;2022-08-01T13:18:02;2.38;;;0.80;;
39180;SDS011;24906;48.262;14.264;2022-08-01T13:24:05;7.47;;;2.20;;
39180;SDS011;24906;48.262;14.264;2022-08-01T13:26:43;8.93;;;1.60;;
39180;SDS011;24906;48.262;14.264;2022-08-01T13:29:18;2.22;;;1.10;;
39180;SDS011;24906;48.262;14.264;2022-08-01T13:31:47;1.40;;;0.80;;
39180;SDS011;24906;48.262;14.264;2022-08-01T13:34:14;4.28;;;0.80;;
39180;SDS011;24906;48.262;14.264;2022-08-01T13:36:48;1.10;;;0.80;;
39180;SDS011;24906;48.262;14.264;2022-08-01T13:39:22;2.13;;;0.65;;
39180;SDS011;24906;48.262;14.264;2022-08-01T13:42:08;1.70;;;0.85;;
39180;SDS011;24906;48.262;14.264;2022-08-01T13:44:46;0.95;;;0.60;;
39180;SDS011;24906;48.262;14.264;2022-08-01T13:47:13;1.33;;;0.80;;
39180;SDS011;24906;48.262;14.264;2022-08-01T13:49:57;1.42;;;0.60;;
39180;SDS011;24906;48.262;14.264;2022-08-01T13:52:27;3.15;;;0.75;;
39180;SDS011;24906;48.262;14.264;2022-08-01T13:55:00;2.22;;;0.80;;
39180;SDS011;24906;48.262;14.264;2022-08-01T13:57:27;1.65;;;0.90;;
39180;SDS011;24906;48.262;14.264;2022-08-01T14:00:06;1.40;;;0.70;;
39180;SDS011;24906;48.262;14.264;2022-08-01T14:02:41;2.47;;;0.65;;
39180;SDS011;24906;48.262;14.264;2022-08-01T14:05:14;0.70;;;0.40;;
39180;SDS011;24906;48.262;14.264;2022-08-01T14:07:47;0.40;;;0.40;;
39180;SDS011;24906;48.262;14.264;2022-08-01T14:10:14;2.63;;;0.50;;
39180;SDS011;24906;48.262;14.264;2022-08-01T14:12:48;0.98;;;0.68;;
39180;SDS011;24906;48.262;14.264;2022-08-01T14:15:22;2.70;;;0.47;;
39180;SDS011;24906;48.262;14.264;2022-08-01T14:18:05;1.35;;;0.70;;
39180;SDS011;24906;48.262;14.264;2022-08-01T14:20:45;0.65;;;0.55;;
39180;SDS011;24906;48.262;14.264;2022-08-01T14:23:22;2.55;;;0.70;;
39180;SDS011;24906;48.262;14.264;2022-08-01T14:25:49;0.85;;;0.82;;
39180;SDS011;24906;48.262;14.264;2022-08-01T14:28:32;2.42;;;0.90;;
39180;SDS011;24906;48.262;14.264;2022-08-01T14:31:06;1.13;;;0.85;;
39180;SDS011;24906;48.262;14.264;2022-08-01T14:33:33;1.33;;;0.80;;
39180;SDS011;24906;48.262;14.264;2022-08-01T14:36:08;2.75;;;0.90;;
39180;SDS011;24906;48.262;14.264;2022-08-01T14:38:54;2.20;;;0.50;;
39180;SDS011;24906;48.262;14.264;2022-08-01T14:41:30;3.50;;;1.00;;
39180;SDS011;24906;48.262;14.264;2022-08-01T14:43:57;1.75;;;0.63;;
39180;SDS011;24906;48.262;14.264;2022-08-01T14:46:33;1.02;;;0.90;;
39180;SDS011;24906;48.262;14.264;2022-08-01T14:49:00;2.10;;;0.77;;
39180;SDS011;24906;48.262;14.264;2022-08-01T14:51:33;1.05;;;0.80;;
39180;SDS011;24906;48.262;14.264;2022-08-01T14:54:01;0.68;;;0.60;;
39180;SDS011;24906;48.262;14.264;2022-08-01T14:56:34;1.10;;;0.90;;
39180;SDS011;24906;48.262;14.264;2022-08-01T14:59:01;1.48;;;0.82;;
39180;SDS011;24906;48.262;14.264;2022-08-01T15:01:47;0.73;;;0.53;;
39180;SDS011;24906;48.262;14.264;2022-08-01T15:04:20;1.17;;;0.77;;
39180;SDS011;24906;48.262;14.264;2022-08-01T15:06:53;6.63;;;0.80;;
39180;SDS011;24906;48.262;14.264;2022-08-01T15:09:28;1.00;;;0.68;;
39180;SDS011;24906;48.262;14.264;2022-08-01T15:12:01;1.10;;;0.90;;
39180;SDS011;24906;48.262;14.264;2022-08-01T15:14:29;2.25;;;0.80;;
39180;SDS011;24906;48.262;14.264;2022-08-01T15:17:27;1.05;;;0.73;;
39180;SDS011;24906;48.262;14.264;2022-08-01T15:19:56;1.27;;;0.80;;
39180;SDS011;24906;48.262;14.264;2022-08-01T15:22:30;3.20;;;0.70;;
39180;SDS011;24906;48.262;14.264;2022-08-01T15:25:06;1.33;;;0.80;;
39180;SDS011;24906;48.262;14.264;2022-08-01T15:27:42;4.47;;;0.90;;
39180;SDS011;24906;48.262;14.264;2022-08-01T15:30:15;2.45;;;0.80;;
39180;SDS011;24906;48.262;14.264;2022-08-01T15:32:48;1.90;;;0.90;;
39180;SDS011;24906;48.262;14.264;2022-08-01T15:35:16;1.00;;;0.80;;
39180;SDS011;24906;48.262;14.264;2022-08-01T15:37:49;4.13;;;0.85;;
39180;SDS011;24906;48.262;14.264;2022-08-01T15:40:23;3.35;;;0.90;;
39180;SDS011;24906;48.262;14.264;2022-08-01T15:42:50;6.18;;;0.85;;
39180;SDS011;24906;48.262;14.264;2022-08-01T15:45:24;1.25;;;0.70;;
39180;SDS011;24906;48.262;14.264;2022-08-01T15:48:12;2.47;;;1.00;;
39180;SDS011;24906;48.262;14.264;2022-08-01T15:50:45;1.48;;;0.95;;
39180;SDS011;24906;48.262;14.264;2022-08-01T15:53:20;1.17;;;0.90;;
39180;SDS011;24906;48.262;14.264;2022-08-01T15:55:47;5.95;;;0.95;;